Terminal Aerodrome Forecast
Issued by NWS Grand Junction, CO

Home | Current Version | Previous Version | Text Only | Print | Product List | Glossary On
Versions: 1 2 3 4 5 6 7 8 9 10 11 12 13 14 15 16 17 18 19 20 21 22 23 24
000
FTUS45 KGJT 191120
TAFGJT
TAF
KGJT 191120Z 1912/2012 00000KT P6SM FEW110
     FM191900 18004KT P6SM SCT130 BKN200
     FM192000 25004KT P6SM SCT130 BKN200
     FM200200 07004KT P6SM SCT110 BKN200=

USA.gov is the U.S. government's official web portal to all federal, state and local government web resources and services.